createdAt,value
2022-11-30T00:00:22.151Z,30.60
2022-11-30T00:02:54.006Z,32.17
2022-11-30T00:05:21.048Z,33.77
2022-11-30T00:07:47.602Z,33.20
2022-11-30T00:10:14.253Z,32.23
2022-11-30T00:12:43.581Z,34.27
2022-11-30T00:15:14.015Z,32.30
2022-11-30T00:17:41.201Z,35.40
2022-11-30T00:20:08.791Z,33.17
2022-11-30T00:22:45.359Z,35.83
2022-11-30T00:25:11.869Z,33.37
2022-11-30T00:27:38.370Z,32.50
2022-11-30T00:30:06.084Z,31.27
2022-11-30T00:32:33.145Z,34.70
2022-11-30T00:34:59.682Z,36.23
2022-11-30T00:37:26.570Z,35.90
2022-11-30T00:39:53.022Z,36.20
2022-11-30T00:42:19.504Z,35.73
2022-11-30T00:44:47.110Z,34.20
2022-11-30T00:47:13.781Z,32.53
2022-11-30T00:49:40.233Z,35.37
2022-11-30T00:52:06.839Z,36.80
2022-11-30T00:54:33.570Z,36.80
2022-11-30T00:57:00.119Z,33.93
2022-11-30T00:59:26.574Z,34.00
2022-11-30T01:01:54.795Z,35.13
2022-11-30T01:04:21.625Z,36.07
2022-11-30T01:06:48.884Z,34.80
2022-11-30T01:09:15.337Z,36.30
2022-11-30T01:11:41.894Z,31.90
2022-11-30T01:14:08.551Z,33.13
2022-11-30T01:16:35.011Z,34.33
2022-11-30T01:19:01.789Z,33.97
2022-11-30T01:21:28.920Z,33.10
2022-11-30T01:23:55.995Z,32.43
2022-11-30T01:26:23.186Z,35.03
2022-11-30T01:28:54.241Z,33.97
2022-11-30T01:31:23.466Z,30.47
2022-11-30T01:33:51.605Z,28.17
2022-11-30T01:36:20.469Z,26.23
2022-11-30T01:38:52.087Z,25.90
2022-11-30T01:41:21.909Z,24.80
2022-11-30T01:44:19.586Z,25.00
2022-11-30T01:46:55.213Z,24.33
2022-11-30T01:49:33.488Z,26.23
2022-11-30T01:52:07.394Z,25.00
2022-11-30T01:54:41.227Z,24.90
2022-11-30T01:57:21.176Z,26.80
2022-11-30T01:59:48.752Z,24.97
2022-11-30T02:02:15.789Z,28.13
2022-11-30T02:04:42.337Z,25.20
2022-11-30T02:07:09.058Z,30.73
2022-11-30T02:09:44.548Z,27.47
2022-11-30T02:12:20.813Z,28.30
2022-11-30T02:14:50.270Z,27.57
2022-11-30T02:17:20.268Z,28.17
2022-11-30T02:20:05.751Z,28.93
2022-11-30T02:22:43.521Z,27.30
2022-11-30T02:25:15.790Z,25.77
2022-11-30T02:27:45.266Z,27.37
2022-11-30T02:30:14.300Z,27.07
2022-11-30T02:32:59.517Z,27.10
2022-11-30T02:35:29.718Z,26.07
2022-11-30T02:37:57.408Z,28.77
2022-11-30T02:40:24.004Z,29.00
2022-11-30T02:42:52.500Z,27.67
2022-11-30T02:45:42.111Z,26.93
2022-11-30T02:48:09.652Z,23.50
2022-11-30T02:50:47.731Z,26.90
2022-11-30T02:53:14.345Z,23.87
2022-11-30T02:55:40.911Z,24.73
2022-11-30T02:58:07.758Z,24.30
2022-11-30T03:00:34.268Z,25.80
2022-11-30T03:03:00.853Z,23.57
2022-11-30T03:05:27.540Z,23.10
2022-11-30T03:07:54.045Z,24.30
2022-11-30T03:10:20.783Z,23.20
2022-11-30T03:12:47.350Z,20.70
2022-11-30T03:15:13.903Z,20.93
2022-11-30T03:17:40.373Z,21.70
2022-11-30T03:20:07.525Z,19.90
2022-11-30T03:22:34.053Z,20.33
2022-11-30T03:25:00.676Z,21.40
2022-11-30T03:27:27.110Z,20.20
2022-11-30T03:29:53.723Z,19.10
2022-11-30T03:32:20.199Z,17.90
2022-11-30T03:34:46.868Z,18.77
2022-11-30T03:37:13.598Z,17.47
2022-11-30T03:39:40.046Z,18.97
2022-11-30T03:42:06.704Z,19.00
2022-11-30T03:44:33.162Z,18.60
2022-11-30T03:46:59.960Z,17.03
2022-11-30T03:49:26.532Z,18.10
2022-11-30T03:51:53.019Z,18.43
2022-11-30T03:54:19.559Z,16.20
2022-11-30T03:56:46.078Z,16.83
2022-11-30T03:59:12.518Z,17.77
2022-11-30T04:01:43.058Z,19.23
2022-11-30T04:04:11.584Z,16.90
2022-11-30T04:06:38.488Z,18.00
2022-11-30T04:09:05.002Z,17.67
2022-11-30T04:11:31.624Z,17.50
2022-11-30T04:13:59.393Z,17.23
2022-11-30T04:16:26.077Z,18.73
2022-11-30T04:18:52.611Z,17.13
2022-11-30T04:21:19.264Z,18.23
2022-11-30T04:23:45.746Z,19.60
2022-11-30T04:26:14.014Z,19.23
2022-11-30T04:28:41.134Z,18.70
2022-11-30T04:31:08.219Z,19.40
2022-11-30T04:33:34.764Z,19.87
2022-11-30T04:36:04.068Z,18.57
2022-11-30T04:38:31.029Z,20.20
2022-11-30T04:40:57.669Z,18.23
2022-11-30T04:43:24.868Z,19.20
2022-11-30T04:45:51.720Z,20.20
2022-11-30T04:48:19.142Z,20.10
2022-11-30T04:50:45.623Z,19.40
2022-11-30T04:53:12.325Z,19.03
2022-11-30T04:55:39.137Z,20.90
2022-11-30T04:58:06.410Z,19.37
2022-11-30T05:00:33.447Z,20.67
2022-11-30T05:03:00.003Z,18.77
2022-11-30T05:05:27.109Z,20.20
2022-11-30T05:07:57.849Z,21.60
2022-11-30T05:10:25.140Z,20.43
2022-11-30T05:12:51.966Z,19.67
2022-11-30T05:15:18.685Z,24.00
2022-11-30T05:17:45.169Z,20.23
2022-11-30T05:20:11.897Z,20.67
2022-11-30T05:22:38.408Z,21.70
2022-11-30T05:25:05.315Z,21.20
2022-11-30T05:27:31.877Z,20.50
2022-11-30T05:29:58.391Z,20.07
2022-11-30T05:32:24.880Z,20.40
2022-11-30T05:34:52.089Z,20.90
2022-11-30T05:37:19.677Z,22.93
2022-11-30T05:39:46.193Z,21.30
2022-11-30T05:42:13.712Z,22.27
2022-11-30T05:44:40.179Z,23.10
2022-11-30T05:47:06.818Z,22.03
2022-11-30T05:49:33.566Z,22.77
2022-11-30T05:52:00.169Z,22.60
2022-11-30T05:54:26.939Z,20.03
2022-11-30T05:56:55.250Z,21.60
2022-11-30T05:59:22.805Z,22.07
2022-11-30T06:01:51.965Z,22.77
2022-11-30T06:04:18.748Z,21.93
2022-11-30T06:06:45.196Z,20.87
2022-11-30T06:09:11.703Z,21.00
2022-11-30T06:11:38.240Z,21.70
2022-11-30T06:14:04.724Z,20.77
2022-11-30T06:16:31.654Z,21.97
2022-11-30T06:18:58.157Z,22.63
2022-11-30T06:21:25.129Z,23.00
2022-11-30T06:23:52.460Z,22.43
2022-11-30T06:26:19.787Z,23.87
2022-11-30T06:28:48.532Z,25.17
2022-11-30T06:31:16.243Z,24.37
2022-11-30T06:33:42.866Z,21.97
2022-11-30T06:36:09.738Z,22.50
2022-11-30T06:38:36.239Z,24.07
2022-11-30T06:41:08.161Z,24.43
2022-11-30T06:43:39.188Z,24.80
2022-11-30T06:46:06.941Z,24.80
2022-11-30T06:48:34.754Z,23.80
2022-11-30T06:51:05.399Z,24.20
2022-11-30T06:53:31.979Z,22.87
2022-11-30T06:55:58.486Z,23.17
2022-11-30T06:58:25.362Z,23.40
2022-11-30T07:00:51.938Z,21.87
2022-11-30T07:03:18.587Z,21.57
2022-11-30T07:05:46.429Z,22.20
2022-11-30T07:08:14.657Z,24.20
2022-11-30T07:10:45.776Z,24.30
2022-11-30T07:13:18.049Z,24.50
2022-11-30T07:15:44.980Z,21.87
2022-11-30T07:18:11.904Z,21.17
2022-11-30T07:20:39.054Z,24.50
2022-11-30T07:23:24.250Z,23.60
2022-11-30T07:26:06.518Z,23.67
2022-11-30T07:28:41.453Z,24.67
2022-11-30T07:31:24.604Z,22.57
2022-11-30T07:33:51.551Z,25.90
2022-11-30T07:36:19.723Z,23.60
2022-11-30T07:38:46.371Z,25.50
2022-11-30T07:41:13.256Z,23.80
2022-11-30T07:43:40.344Z,25.20
2022-11-30T07:46:07.216Z,26.10
2022-11-30T07:48:35.192Z,23.70
2022-11-30T07:51:06.633Z,24.00
2022-11-30T07:53:33.128Z,24.83
2022-11-30T07:56:07.986Z,23.40
2022-11-30T07:58:34.791Z,28.30
2022-11-30T08:01:06.577Z,24.57
2022-11-30T08:03:37.130Z,27.77
2022-11-30T08:06:30.817Z,23.87
2022-11-30T08:08:59.641Z,24.47
2022-11-30T08:11:28.459Z,25.00
2022-11-30T08:13:55.348Z,24.63
2022-11-30T08:16:24.487Z,24.70
2022-11-30T08:18:51.467Z,25.07
2022-11-30T08:21:20.005Z,25.67
2022-11-30T08:23:51.818Z,25.03
2022-11-30T08:26:19.363Z,26.70
2022-11-30T08:28:47.410Z,24.70
2022-11-30T08:31:20.669Z,25.00
2022-11-30T08:33:47.562Z,25.80
2022-11-30T08:36:19.861Z,23.50
2022-11-30T08:38:46.886Z,24.20
2022-11-30T08:41:15.737Z,23.70
2022-11-30T08:43:42.870Z,23.50
2022-11-30T08:46:42.623Z,26.33
2022-11-30T08:49:19.719Z,23.73
2022-11-30T08:52:15.848Z,24.57
2022-11-30T08:54:33.695Z,22.80
2022-11-30T08:57:00.186Z,23.47
2022-11-30T08:59:26.716Z,25.13
2022-11-30T09:01:53.337Z,23.23
2022-11-30T09:04:19.998Z,23.77
2022-11-30T09:06:46.453Z,24.30
2022-11-30T09:09:13.700Z,24.80
2022-11-30T09:11:40.223Z,23.50
2022-11-30T09:14:09.021Z,23.23
2022-11-30T09:16:35.863Z,27.50
2022-11-30T09:19:02.475Z,31.03
2022-11-30T09:21:29.530Z,27.70
2022-11-30T09:23:56.549Z,25.20
2022-11-30T09:26:25.407Z,28.17
2022-11-30T09:28:53.202Z,24.07
2022-11-30T09:31:22.098Z,24.80
2022-11-30T09:33:48.970Z,27.60
2022-11-30T09:36:22.312Z,31.77
2022-11-30T09:38:49.194Z,24.50
2022-11-30T09:41:46.659Z,28.17
2022-11-30T09:44:27.081Z,22.93
2022-11-30T09:46:59.631Z,28.17
2022-11-30T09:49:34.216Z,34.47
2022-11-30T09:52:04.437Z,26.77
2022-11-30T09:54:37.468Z,30.67
2022-11-30T09:57:33.569Z,27.60
2022-11-30T10:00:04.063Z,28.83
2022-11-30T10:02:33.110Z,26.67
2022-11-30T10:05:00.600Z,25.63
2022-11-30T10:08:02.893Z,25.60
2022-11-30T10:10:41.919Z,21.53
2022-11-30T10:14:13.282Z,25.63
2022-11-30T10:17:11.952Z,21.70
2022-11-30T10:22:40.023Z,20.97
2022-11-30T10:25:12.472Z,24.50
2022-11-30T10:28:18.053Z,22.90
2022-11-30T10:30:49.515Z,24.10
2022-11-30T10:33:20.982Z,25.77
2022-11-30T10:35:55.356Z,20.97
2022-11-30T10:38:31.894Z,21.50
2022-11-30T10:41:15.716Z,21.83
2022-11-30T10:43:46.335Z,20.80
2022-11-30T10:46:22.785Z,18.57
2022-11-30T10:48:57.438Z,16.80
2022-11-30T10:51:25.275Z,13.80
2022-11-30T10:53:51.727Z,16.50
2022-11-30T10:56:18.211Z,15.57
2022-11-30T10:58:51.002Z,16.50
2022-11-30T11:01:39.272Z,13.77
2022-11-30T11:04:08.946Z,12.77
2022-11-30T11:06:35.989Z,15.00
2022-11-30T11:09:24.541Z,14.70
2022-11-30T11:11:55.371Z,13.10
2022-11-30T11:14:23.574Z,13.63
2022-11-30T11:16:57.274Z,16.87
2022-11-30T11:19:42.776Z,13.57
2022-11-30T11:22:25.182Z,12.90
2022-11-30T11:24:54.860Z,14.93
2022-11-30T11:27:32.325Z,11.00
2022-11-30T11:30:02.487Z,11.50
2022-11-30T11:32:30.353Z,10.27
2022-11-30T11:34:58.210Z,11.00
2022-11-30T11:37:28.723Z,9.90
2022-11-30T11:39:57.909Z,9.00
2022-11-30T11:42:24.719Z,11.07
2022-11-30T11:44:52.664Z,9.73
2022-11-30T11:47:40.394Z,10.10
2022-11-30T11:50:07.511Z,10.37
2022-11-30T11:52:34.068Z,13.07
2022-11-30T11:55:04.898Z,10.90
2022-11-30T11:57:42.576Z,11.13
2022-11-30T12:00:16.841Z,10.30
2022-11-30T12:02:52.207Z,10.57
2022-11-30T12:05:25.208Z,9.80
2022-11-30T12:08:25.715Z,9.40
2022-11-30T12:11:07.988Z,9.87
2022-11-30T12:13:39.326Z,10.00
2022-11-30T12:16:12.006Z,11.00
2022-11-30T12:19:05.558Z,14.10
2022-11-30T12:21:52.125Z,11.40
2022-11-30T12:24:30.169Z,10.90
2022-11-30T12:27:19.442Z,10.70
2022-11-30T12:29:55.108Z,16.40
2022-11-30T12:32:34.934Z,20.07
2022-11-30T12:35:37.454Z,14.47
2022-11-30T12:38:31.325Z,14.03
2022-11-30T12:41:00.982Z,12.87
2022-11-30T12:43:36.554Z,12.60
2022-11-30T12:46:29.303Z,12.63
2022-11-30T12:49:09.825Z,15.63
2022-11-30T12:52:04.728Z,13.43
2022-11-30T12:54:53.475Z,11.40
2022-11-30T12:57:31.428Z,10.77
2022-11-30T13:00:20.399Z,12.00
2022-11-30T13:03:23.724Z,16.13
2022-11-30T13:05:58.073Z,12.80
2022-11-30T13:08:36.092Z,11.10
2022-11-30T13:11:06.464Z,12.83
2022-11-30T13:13:35.479Z,13.43
2022-11-30T13:16:05.103Z,13.80
2022-11-30T13:18:34.389Z,17.70
2022-11-30T13:21:17.915Z,13.60
2022-11-30T13:23:50.302Z,14.00
2022-11-30T13:26:31.385Z,14.00
2022-11-30T13:29:20.607Z,14.30
2022-11-30T13:31:53.242Z,13.50
2022-11-30T13:34:30.098Z,17.47
2022-11-30T13:37:24.325Z,13.80
2022-11-30T13:39:55.813Z,13.97
2022-11-30T13:42:22.226Z,14.73
2022-11-30T13:44:49.796Z,13.90
2022-11-30T13:47:20.203Z,13.20
2022-11-30T13:49:47.116Z,14.10
2022-11-30T13:52:22.739Z,14.80
2022-11-30T13:54:54.468Z,12.83
2022-11-30T13:57:27.070Z,13.30
2022-11-30T13:59:58.693Z,15.80
2022-11-30T14:02:36.496Z,14.27
2022-11-30T14:05:17.931Z,13.70
2022-11-30T14:08:00.649Z,13.53
2022-11-30T14:10:39.071Z,17.73
2022-11-30T14:13:29.522Z,14.70
2022-11-30T14:16:01.349Z,15.47
2022-11-30T14:18:48.205Z,16.73
2022-11-30T14:21:37.024Z,17.53
2022-11-30T14:24:23.512Z,21.00
2022-11-30T14:26:51.110Z,22.10
2022-11-30T14:29:33.404Z,15.70
2022-11-30T14:32:07.156Z,16.00
2022-11-30T14:34:39.091Z,14.30
2022-11-30T14:37:13.961Z,14.20
2022-11-30T14:39:43.740Z,15.37
2022-11-30T14:42:24.913Z,21.70
2022-11-30T14:44:51.815Z,21.70
2022-11-30T14:47:25.597Z,18.30
2022-11-30T14:49:54.768Z,14.20
2022-11-30T14:52:32.291Z,15.00
2022-11-30T14:55:15.225Z,14.20
2022-11-30T14:57:55.379Z,14.60
2022-11-30T15:00:22.055Z,14.20
2022-11-30T15:02:49.506Z,14.10
2022-11-30T15:05:18.217Z,13.00
2022-11-30T15:07:45.536Z,13.13
2022-11-30T15:10:29.467Z,13.57
2022-11-30T15:12:57.517Z,13.07
2022-11-30T15:15:27.808Z,13.37
2022-11-30T15:18:14.157Z,12.20
2022-11-30T15:20:48.943Z,14.40
2022-11-30T15:23:15.918Z,13.53
2022-11-30T15:25:48.719Z,13.10
2022-11-30T15:28:19.150Z,15.00
2022-11-30T15:30:47.061Z,16.83
2022-11-30T15:33:19.269Z,15.50
2022-11-30T15:36:13.603Z,17.10
2022-11-30T15:38:34.728Z,17.87
2022-11-30T15:41:03.668Z,15.40
2022-11-30T15:43:36.457Z,16.20
2022-11-30T15:46:03.514Z,16.37
2022-11-30T15:48:40.060Z,19.07
2022-11-30T15:51:07.070Z,18.30
2022-11-30T15:53:33.498Z,15.47
2022-11-30T15:56:11.561Z,14.43
2022-11-30T15:58:46.499Z,16.87
2022-11-30T16:01:24.148Z,13.97
2022-11-30T16:03:59.563Z,13.83
2022-11-30T16:06:27.414Z,12.57
2022-11-30T16:08:55.131Z,12.50
2022-11-30T16:11:21.744Z,13.03
2022-11-30T16:13:48.289Z,14.13
2022-11-30T16:16:23.742Z,14.97
2022-11-30T16:18:50.398Z,14.67
2022-11-30T16:21:18.862Z,14.27
2022-11-30T16:23:46.372Z,18.00
2022-11-30T16:26:36.026Z,14.80
2022-11-30T16:29:01.993Z,15.30
2022-11-30T16:31:28.648Z,15.57
2022-11-30T16:33:55.400Z,15.80
2022-11-30T16:36:22.104Z,16.40
2022-11-30T16:38:52.596Z,15.93
2022-11-30T16:41:22.104Z,14.00
2022-11-30T16:43:52.747Z,15.50
2022-11-30T16:46:21.837Z,14.20
2022-11-30T16:48:48.849Z,14.40
2022-11-30T16:51:17.094Z,13.37
2022-11-30T16:53:44.535Z,14.53
2022-11-30T16:56:12.475Z,15.47
2022-11-30T16:58:39.263Z,14.73
2022-11-30T17:01:07.349Z,16.70
2022-11-30T17:03:35.160Z,15.47
2022-11-30T17:06:02.339Z,17.20
2022-11-30T17:08:28.839Z,15.80
2022-11-30T17:10:55.419Z,15.40
2022-11-30T17:13:22.184Z,18.10
2022-11-30T17:15:49.175Z,17.40
2022-11-30T17:18:15.765Z,18.50
2022-11-30T17:20:42.559Z,16.20
2022-11-30T17:23:09.129Z,13.90
2022-11-30T17:25:35.645Z,20.53
2022-11-30T17:28:02.192Z,23.27
2022-11-30T17:30:28.872Z,19.57
2022-11-30T17:32:55.439Z,19.50
2022-11-30T17:35:21.937Z,16.60
2022-11-30T17:37:58.303Z,16.30
2022-11-30T17:40:24.873Z,17.37
2022-11-30T17:42:51.392Z,15.50
2022-11-30T17:45:17.951Z,18.00
2022-11-30T17:47:44.497Z,15.50
2022-11-30T17:50:11.468Z,19.97
2022-11-30T17:52:38.032Z,16.10
2022-11-30T17:55:04.985Z,16.37
2022-11-30T17:57:31.520Z,17.10
2022-11-30T17:59:58.049Z,17.37
2022-11-30T18:02:24.615Z,15.40
2022-11-30T18:04:52.597Z,18.20
2022-11-30T18:07:20.048Z,18.80
2022-11-30T18:09:47.150Z,21.27
2022-11-30T18:12:13.783Z,25.87
2022-11-30T18:14:40.235Z,24.40
2022-11-30T18:17:07.134Z,21.23
2022-11-30T18:19:33.783Z,19.20
2022-11-30T18:22:00.343Z,19.17
2022-11-30T18:24:26.851Z,24.13
2022-11-30T18:26:53.671Z,20.97
2022-11-30T18:29:20.228Z,23.37
2022-11-30T18:31:48.521Z,20.87
2022-11-30T18:34:15.395Z,22.27
2022-11-30T18:36:41.984Z,20.70
2022-11-30T18:39:08.557Z,21.10
2022-11-30T18:41:35.063Z,21.27
2022-11-30T18:44:01.574Z,20.87
2022-11-30T18:46:28.103Z,21.93
2022-11-30T18:48:55.343Z,23.13
2022-11-30T18:51:24.448Z,25.43
2022-11-30T18:53:59.309Z,24.87
2022-11-30T18:56:27.713Z,28.53
2022-11-30T18:58:56.447Z,27.53
2022-11-30T19:01:23.244Z,27.47
2022-11-30T19:03:54.399Z,27.73
2022-11-30T19:06:21.577Z,24.50
2022-11-30T19:08:48.414Z,26.90
2022-11-30T19:11:16.463Z,27.20
2022-11-30T19:13:44.038Z,26.40
2022-11-30T19:16:13.172Z,28.47
2022-11-30T19:18:40.004Z,27.67
2022-11-30T19:21:10.496Z,30.60
2022-11-30T19:23:38.081Z,34.07
2022-11-30T19:26:05.986Z,31.60
2022-11-30T19:28:33.881Z,32.60
2022-11-30T19:31:00.760Z,35.87
2022-11-30T19:33:27.782Z,52.67
2022-11-30T19:36:00.691Z,38.40
2022-11-30T19:38:27.329Z,32.23
2022-11-30T19:40:53.765Z,30.00
2022-11-30T19:43:20.272Z,29.53
2022-11-30T19:45:46.839Z,30.20
2022-11-30T19:48:13.342Z,30.30
2022-11-30T19:50:39.822Z,29.23
2022-11-30T19:53:06.357Z,31.60
2022-11-30T19:55:33.113Z,29.27
2022-11-30T19:57:59.599Z,27.60
2022-11-30T20:00:26.222Z,29.00
2022-11-30T20:02:53.137Z,28.93
2022-11-30T20:05:19.796Z,29.67
2022-11-30T20:07:46.332Z,27.90
2022-11-30T20:10:15.700Z,29.23
2022-11-30T20:12:42.263Z,30.07
2022-11-30T20:15:09.309Z,26.83
2022-11-30T20:17:36.232Z,29.13
2022-11-30T20:20:02.883Z,29.50
2022-11-30T20:22:29.736Z,29.00
2022-11-30T20:24:56.251Z,27.47
2022-11-30T20:27:24.701Z,24.13
2022-11-30T20:29:52.197Z,22.73
2022-11-30T20:32:19.660Z,25.07
2022-11-30T20:34:46.625Z,24.23
2022-11-30T20:37:15.683Z,24.73
2022-11-30T20:39:45.708Z,23.90
2022-11-30T20:42:13.047Z,24.67
2022-11-30T20:44:39.586Z,24.53
2022-11-30T20:47:06.119Z,26.53
2022-11-30T20:49:32.604Z,24.77
2022-11-30T20:51:59.179Z,23.30
2022-11-30T20:54:26.252Z,26.43
2022-11-30T20:56:52.784Z,45.57
2022-11-30T20:59:23.918Z,30.30
2022-11-30T21:01:50.616Z,25.30
2022-11-30T21:04:17.194Z,24.17
2022-11-30T21:06:45.726Z,24.47
2022-11-30T21:09:17.539Z,26.70
2022-11-30T21:11:44.464Z,25.63
2022-11-30T21:14:11.504Z,24.80
2022-11-30T21:16:37.996Z,25.00
2022-11-30T21:19:04.596Z,25.60
2022-11-30T21:21:34.445Z,26.30
2022-11-30T21:24:03.485Z,25.83
2022-11-30T21:26:32.155Z,28.10
2022-11-30T21:29:01.561Z,22.87
2022-11-30T21:31:28.206Z,26.73
2022-11-30T21:33:54.844Z,26.03
2022-11-30T21:36:23.018Z,26.00
2022-11-30T21:39:04.606Z,25.37
2022-11-30T21:41:32.988Z,26.30
2022-11-30T21:43:59.456Z,26.13
2022-11-30T21:46:26.019Z,27.10
2022-11-30T21:48:52.647Z,26.40
2022-11-30T21:51:21.479Z,28.50
2022-11-30T21:53:56.552Z,27.33
2022-11-30T21:56:31.367Z,26.77
2022-11-30T21:58:58.059Z,27.13
2022-11-30T22:01:30.084Z,27.20
2022-11-30T22:03:57.991Z,25.60
2022-11-30T22:06:25.478Z,26.47
2022-11-30T22:08:52.183Z,26.07
2022-11-30T22:11:20.804Z,26.00
2022-11-30T22:13:52.208Z,26.97
2022-11-30T22:16:19.460Z,28.43
2022-11-30T22:18:46.915Z,27.70
2022-11-30T22:21:19.184Z,26.77
2022-11-30T22:23:49.022Z,28.03
2022-11-30T22:26:24.164Z,28.47
2022-11-30T22:28:58.652Z,29.67
2022-11-30T22:31:28.192Z,28.43
2022-11-30T22:33:55.692Z,29.73
2022-11-30T22:36:24.699Z,29.37
2022-11-30T22:38:59.214Z,28.07
2022-11-30T22:41:26.463Z,28.83
2022-11-30T22:43:53.334Z,30.57
2022-11-30T22:46:22.153Z,27.50
2022-11-30T22:48:48.883Z,28.30
2022-11-30T22:51:18.977Z,28.13
2022-11-30T22:53:47.579Z,29.27
2022-11-30T22:56:18.573Z,31.67
2022-11-30T22:58:47.198Z,29.37
2022-11-30T23:01:19.498Z,28.30
2022-11-30T23:03:48.017Z,28.90
2022-11-30T23:06:16.668Z,28.83
2022-11-30T23:08:43.499Z,28.90
2022-11-30T23:11:15.040Z,29.67
2022-11-30T23:13:42.640Z,26.87
2022-11-30T23:16:10.616Z,26.83
2022-11-30T23:18:42.125Z,25.30
2022-11-30T23:21:30.264Z,27.97
2022-11-30T23:23:59.093Z,26.97
2022-11-30T23:26:30.794Z,27.37
2022-11-30T23:29:02.619Z,27.83
2022-11-30T23:31:35.319Z,24.87
2022-11-30T23:34:04.313Z,26.83
2022-11-30T23:36:30.896Z,24.80
2022-11-30T23:39:02.361Z,24.70
2022-11-30T23:41:29.075Z,24.70
2022-11-30T23:43:55.600Z,23.97
2022-11-30T23:46:22.481Z,24.30
2022-11-30T23:48:49.196Z,23.20
2022-11-30T23:51:15.716Z,24.37
2022-11-30T23:53:42.466Z,22.63
2022-11-30T23:56:12.278Z,24.80
2022-11-30T23:58:39.732Z,26.63
